createdAt,value
2022-07-27T00:02:42.362Z,98546.88
2022-07-27T00:08:04.173Z,98550.22
2022-07-27T00:13:26.397Z,98539.00
2022-07-27T00:18:48.181Z,98549.50
2022-07-27T00:24:09.934Z,98561.41
2022-07-27T00:29:31.652Z,98560.34
2022-07-27T00:34:53.369Z,98557.16
2022-07-27T00:40:15.276Z,98558.19
2022-07-27T00:45:37.198Z,98563.16
2022-07-27T00:50:59.179Z,98557.81
2022-07-27T00:56:22.267Z,98539.59
2022-07-27T01:01:44.148Z,98542.25
2022-07-27T01:07:06.876Z,98545.78
2022-07-27T01:12:31.416Z,98536.78
2022-07-27T01:17:53.223Z,98525.81
2022-07-27T01:23:14.953Z,98520.28
2022-07-27T01:28:36.720Z,98522.91
2022-07-27T01:33:58.560Z,98526.28
2022-07-27T01:39:20.389Z,98513.28
2022-07-27T01:44:42.132Z,98513.47
2022-07-27T01:50:05.079Z,98512.09
2022-07-27T01:55:26.856Z,98510.44
2022-07-27T02:00:52.997Z,98502.69
2022-07-27T02:06:14.730Z,98491.13
2022-07-27T02:11:55.071Z,98489.59
2022-07-27T02:17:16.860Z,98495.41
2022-07-27T02:22:40.807Z,98497.34
2022-07-27T02:28:02.567Z,98504.00
2022-07-27T02:33:24.400Z,98505.59
2022-07-27T02:38:46.236Z,98504.44
2022-07-27T02:44:07.982Z,98501.94
2022-07-27T02:49:29.742Z,98499.22
2022-07-27T02:54:51.514Z,98508.63
2022-07-27T03:00:14.919Z,98506.44
2022-07-27T03:05:36.802Z,98504.59
2022-07-27T03:10:58.533Z,98504.22
2022-07-27T03:16:20.339Z,98515.59
2022-07-27T03:21:42.128Z,98503.66
2022-07-27T03:27:03.962Z,98505.97
2022-07-27T03:32:25.737Z,98511.59
2022-07-27T03:37:47.468Z,98511.75
2022-07-27T03:43:09.284Z,98508.53
2022-07-27T03:48:31.064Z,98502.16
2022-07-27T03:53:52.813Z,98514.47
2022-07-27T03:59:15.269Z,98517.81
2022-07-27T04:04:37.244Z,98514.06
2022-07-27T04:09:59.173Z,98516.50
2022-07-27T04:15:21.486Z,98523.44
2022-07-27T04:20:43.234Z,98530.88
2022-07-27T04:26:05.041Z,98542.41
2022-07-27T04:31:26.819Z,98537.47
2022-07-27T04:36:50.128Z,98540.75
2022-07-27T04:42:11.865Z,98539.66
2022-07-27T04:47:33.676Z,98545.66
2022-07-27T04:52:55.416Z,98540.38
2022-07-27T04:58:17.199Z,98539.91
2022-07-27T05:03:40.230Z,98553.59
2022-07-27T05:09:02.044Z,98555.53
2022-07-27T05:14:23.809Z,98554.66
2022-07-27T05:19:45.677Z,98565.84
2022-07-27T05:25:08.361Z,98570.44
2022-07-27T05:30:30.201Z,98578.00
2022-07-27T05:35:52.048Z,98573.50
2022-07-27T05:41:13.904Z,98580.25
2022-07-27T05:46:36.482Z,98579.66
2022-07-27T05:51:58.308Z,98588.13
2022-07-27T05:57:20.046Z,98592.16
2022-07-27T06:02:41.940Z,98592.03
2022-07-27T06:08:08.618Z,98603.78
2022-07-27T06:13:31.571Z,98609.94
2022-07-27T06:18:53.346Z,98597.44
2022-07-27T06:24:15.161Z,98602.53
2022-07-27T06:29:36.944Z,98597.16
2022-07-27T06:35:00.171Z,98606.75
2022-07-27T06:40:22.194Z,98620.78
2022-07-27T06:45:43.901Z,98620.25
2022-07-27T06:51:06.044Z,98621.19
2022-07-27T06:56:27.926Z,98610.00
2022-07-27T07:01:49.613Z,98609.94
2022-07-27T07:07:11.479Z,98606.59
2022-07-27T07:12:33.233Z,98606.81
2022-07-27T07:17:55.195Z,98598.97
2022-07-27T07:23:23.045Z,98602.81
2022-07-27T07:28:44.828Z,98600.47
2022-07-27T07:34:06.826Z,98594.91
2022-07-27T07:39:31.386Z,98598.44
2022-07-27T07:44:53.485Z,98591.97
2022-07-27T07:50:15.943Z,98594.63
2022-07-27T07:55:37.737Z,98591.09
2022-07-27T08:00:59.637Z,98596.25
2022-07-27T08:06:21.570Z,98599.97
2022-07-27T08:11:44.317Z,98606.28
2022-07-27T08:17:06.100Z,98602.00
2022-07-27T08:22:28.265Z,98607.91
2022-07-27T08:27:50.019Z,98605.72
2022-07-27T08:33:12.059Z,98607.09
2022-07-27T08:38:33.886Z,98602.66
2022-07-27T08:43:59.374Z,98602.31
2022-07-27T08:49:21.233Z,98611.00
2022-07-27T08:54:43.070Z,98611.75
2022-07-27T09:00:06.574Z,98612.22
2022-07-27T09:05:37.217Z,98610.59
2022-07-27T09:11:00.356Z,98605.59
2022-07-27T09:17:03.154Z,98599.53
2022-07-27T09:22:11.615Z,98605.38
2022-07-27T09:27:33.360Z,98598.41
2022-07-27T09:32:56.661Z,98591.44
2022-07-27T09:38:23.415Z,98601.53
2022-07-27T09:49:35.447Z,98607.91
2022-07-27T09:55:05.709Z,98612.59
2022-07-27T10:00:27.534Z,98615.88
2022-07-27T10:05:49.313Z,98610.06
2022-07-27T10:11:11.849Z,98605.25
2022-07-27T10:16:34.921Z,98605.59
2022-07-27T10:21:56.700Z,98606.81
2022-07-27T10:27:28.057Z,98601.66
2022-07-27T10:32:49.911Z,98592.50
2022-07-27T10:38:15.562Z,98600.84
2022-07-27T10:43:37.317Z,98588.34
2022-07-27T10:49:20.024Z,98588.00
2022-07-27T10:54:41.853Z,98588.81
2022-07-27T11:00:12.461Z,98582.34
2022-07-27T11:06:00.029Z,98568.59
2022-07-27T11:11:25.447Z,98573.72
2022-07-27T11:16:55.250Z,98567.72
2022-07-27T11:28:28.245Z,98560.34
2022-07-27T11:33:58.349Z,98556.28
2022-07-27T11:39:59.080Z,98553.41
2022-07-27T11:45:08.150Z,98545.56
2022-07-27T11:50:30.069Z,98536.13
2022-07-27T11:55:52.402Z,98530.22
2022-07-27T12:01:27.063Z,98535.47
2022-07-27T12:07:05.835Z,98541.25
2022-07-27T12:12:29.219Z,98535.09
2022-07-27T12:17:59.825Z,98534.16
2022-07-27T12:23:29.779Z,98537.09
2022-07-27T12:29:07.460Z,98539.59
2022-07-27T12:34:34.100Z,98524.53
2022-07-27T12:39:56.072Z,98525.03
2022-07-27T12:45:19.554Z,98521.53
2022-07-27T12:50:43.367Z,98527.53
2022-07-27T12:56:07.826Z,98529.19
2022-07-27T13:01:30.084Z,98517.69
2022-07-27T13:06:51.886Z,98510.59
2022-07-27T13:12:13.754Z,98510.81
2022-07-27T13:17:36.023Z,98505.94
2022-07-27T13:22:57.788Z,98507.97
2022-07-27T13:28:19.829Z,98506.88
2022-07-27T13:33:41.693Z,98515.59
2022-07-27T13:39:03.523Z,98507.00
2022-07-27T13:44:58.326Z,98489.63
2022-07-27T13:50:15.176Z,98505.44
2022-07-27T13:55:39.683Z,98495.41
2022-07-27T14:01:05.525Z,98493.50
2022-07-27T14:06:29.301Z,98493.66
2022-07-27T14:11:52.871Z,98490.25
2022-07-27T14:17:14.944Z,98487.31
2022-07-27T14:22:36.723Z,98479.84
2022-07-27T14:28:00.178Z,98471.25
2022-07-27T14:33:22.455Z,98466.56
2022-07-27T14:38:44.353Z,98485.63
2022-07-27T14:44:07.403Z,98478.44
2022-07-27T14:49:29.237Z,98474.66
2022-07-27T14:54:51.131Z,98466.00
2022-07-27T15:00:14.444Z,98475.16
2022-07-27T15:05:50.141Z,98467.78
2022-07-27T15:11:12.775Z,98474.75
2022-07-27T15:16:35.023Z,98466.28
2022-07-27T15:21:56.819Z,98466.53
2022-07-27T15:27:19.659Z,98468.75
2022-07-27T15:32:41.429Z,98467.94
2022-07-27T15:38:03.783Z,98462.31
2022-07-27T15:43:25.694Z,98461.56
2022-07-27T15:48:47.664Z,98462.31
2022-07-27T15:54:09.460Z,98464.44
2022-07-27T15:59:31.179Z,98458.44
2022-07-27T16:04:54.357Z,98446.53
2022-07-27T16:10:16.079Z,98456.97
2022-07-27T16:15:56.751Z,98457.97
2022-07-27T16:21:19.547Z,98445.66
2022-07-27T16:26:41.428Z,98433.91
2022-07-27T16:32:04.762Z,98429.59
2022-07-27T16:37:26.589Z,98441.53
2022-07-27T16:42:48.376Z,98439.25
2022-07-27T16:48:12.216Z,98440.16
2022-07-27T16:53:34.088Z,98440.41
2022-07-27T16:58:55.972Z,98434.59
2022-07-27T17:04:18.483Z,98436.78
2022-07-27T17:09:40.818Z,98444.16
2022-07-27T17:15:02.679Z,98442.97
2022-07-27T17:20:33.140Z,98433.09
2022-07-27T17:25:57.392Z,98445.00
2022-07-27T17:31:21.102Z,98440.19
2022-07-27T17:36:43.063Z,98441.19
2022-07-27T17:42:05.470Z,98447.56
2022-07-27T17:47:27.285Z,98434.56
2022-07-27T17:52:49.231Z,98449.41
2022-07-27T17:58:11.007Z,98455.00
2022-07-27T18:03:33.029Z,98454.94
2022-07-27T18:08:55.305Z,98451.97
2022-07-27T18:14:17.159Z,98450.66
2022-07-27T18:19:39.042Z,98459.72
2022-07-27T18:25:00.978Z,98458.56
2022-07-27T18:30:23.019Z,98463.72
2022-07-27T18:35:46.537Z,98462.78
2022-07-27T18:41:08.324Z,98463.75
2022-07-27T18:46:30.233Z,98470.28
2022-07-27T18:51:52.626Z,98472.84
2022-07-27T18:57:14.441Z,98480.88
2022-07-27T19:02:39.342Z,98484.75
2022-07-27T19:08:02.533Z,98488.41
2022-07-27T19:13:24.387Z,98488.59
2022-07-27T19:18:46.262Z,98497.28
2022-07-27T19:24:08.990Z,98504.50
2022-07-27T19:29:31.520Z,98504.50
2022-07-27T19:34:53.418Z,98514.84
2022-07-27T19:40:42.918Z,98518.22
2022-07-27T19:45:57.144Z,98526.22
2022-07-27T19:51:18.976Z,98524.88
2022-07-27T19:56:40.808Z,98535.75
2022-07-27T20:02:02.738Z,98529.59
2022-07-27T20:07:24.621Z,98537.31
2022-07-27T20:12:46.429Z,98537.16
2022-07-27T20:18:08.231Z,98532.81
2022-07-27T20:23:30.044Z,98533.97
2022-07-27T20:28:52.073Z,98533.47
2022-07-27T20:34:13.881Z,98541.97
2022-07-27T20:39:35.707Z,98541.84
2022-07-27T20:44:58.520Z,98545.69
2022-07-27T20:50:20.273Z,98542.19
2022-07-27T20:55:43.256Z,98545.03
2022-07-27T21:01:05.274Z,98555.38
2022-07-27T21:06:27.103Z,98553.22
2022-07-27T21:11:49.393Z,98548.38
2022-07-27T21:17:11.220Z,98543.38
2022-07-27T21:22:35.233Z,98550.53
2022-07-27T21:27:56.931Z,98548.50
2022-07-27T21:33:30.078Z,98545.38
2022-07-27T21:38:51.917Z,98550.69
2022-07-27T21:44:15.661Z,98561.97
2022-07-27T21:49:39.136Z,98563.97
2022-07-27T21:55:01.006Z,98561.81
2022-07-27T22:00:24.581Z,98562.81
2022-07-27T22:05:46.734Z,98556.97
2022-07-27T22:11:09.134Z,98559.78
2022-07-27T22:16:30.896Z,98553.97
2022-07-27T22:21:52.681Z,98559.44
2022-07-27T22:27:14.517Z,98555.91
2022-07-27T22:32:36.468Z,98557.56
2022-07-27T22:37:58.230Z,98569.34
2022-07-27T22:43:19.972Z,98571.81
2022-07-27T22:48:41.935Z,98571.81
2022-07-27T22:54:04.326Z,98570.47
2022-07-27T22:59:26.543Z,98575.44
2022-07-27T23:04:48.485Z,98569.78
2022-07-27T23:10:30.797Z,98576.75
2022-07-27T23:15:52.745Z,98573.94
2022-07-27T23:21:14.532Z,98566.22
2022-07-27T23:26:36.281Z,98565.31
2022-07-27T23:31:58.298Z,98576.28
2022-07-27T23:37:20.043Z,98566.66
2022-07-27T23:42:41.786Z,98567.63
2022-07-27T23:48:03.699Z,98563.63
2022-07-27T23:53:25.541Z,98553.16
2022-07-27T23:58:47.325Z,98555.56
